Terminal Aerodrome Forecast
Issued by NWS Quad Cities IA IL

Current Version | Previous Version | Text Only | Print | Product List | Glossary On
Versions: 1 2 3 4 5 6 7 8 9 10 11 12 13 14 15 16 17 18
737
FTUS43 KDVN 281403 AAC
TAFMLI
TAF AMD
KMLI 281403Z 2814/2912 11008KT 3SM RA BR SCT023 OVC035
      TEMPO 2814/2815 2SM -RA BR BKN023
     FM281600 20013G20KT P6SM SCT030 BKN150
     FM281800 21014G25KT P6SM SCT050 BKN150
     FM282300 22012KT 5SM TSRA BR OVC030CB
     FM290200 20008KT P6SM BKN080=

USA.gov is the U.S. government's official web portal to all federal, state and local government web resources and services.